sensor_id;sensor_type;location;lat;lon;timestamp;temperature;humidity
21298;DHT22;10808;48.010;11.326;2022-07-21T00:01:48;23.20;99.90
21298;DHT22;10808;48.010;11.326;2022-07-21T00:04:14;23.20;99.90
21298;DHT22;10808;48.010;11.326;2022-07-21T00:06:44;23.10;99.90
21298;DHT22;10808;48.010;11.326;2022-07-21T00:09:11;23.10;99.90
21298;DHT22;10808;48.010;11.326;2022-07-21T00:11:38;23.00;99.90
21298;DHT22;10808;48.010;11.326;2022-07-21T00:14:06;23.00;99.90
21298;DHT22;10808;48.010;11.326;2022-07-21T00:16:33;23.00;99.90
21298;DHT22;10808;48.010;11.326;2022-07-21T00:18:59;23.00;99.90
21298;DHT22;10808;48.010;11.326;2022-07-21T00:21:27;22.90;99.90
21298;DHT22;10808;48.010;11.326;2022-07-21T00:23:53;22.90;99.90
21298;DHT22;10808;48.010;11.326;2022-07-21T00:26:19;22.90;99.90
21298;DHT22;10808;48.010;11.326;2022-07-21T00:28:45;22.80;99.90
21298;DHT22;10808;48.010;11.326;2022-07-21T00:31:11;22.80;99.90
21298;DHT22;10808;48.010;11.326;2022-07-21T00:33:37;22.80;99.90
21298;DHT22;10808;48.010;11.326;2022-07-21T00:36:04;22.90;99.90
21298;DHT22;10808;48.010;11.326;2022-07-21T00:38:30;22.80;99.90
21298;DHT22;10808;48.010;11.326;2022-07-21T00:40:56;22.80;99.90
21298;DHT22;10808;48.010;11.326;2022-07-21T00:43:22;22.70;99.90
21298;DHT22;10808;48.010;11.326;2022-07-21T00:45:48;22.70;99.90
21298;DHT22;10808;48.010;11.326;2022-07-21T00:48:14;22.70;99.90
21298;DHT22;10808;48.010;11.326;2022-07-21T00:50:40;22.70;99.90
21298;DHT22;10808;48.010;11.326;2022-07-21T00:53:06;22.70;99.90
21298;DHT22;10808;48.010;11.326;2022-07-21T00:55:32;22.70;99.90
21298;DHT22;10808;48.010;11.326;2022-07-21T00:57:58;22.80;99.90
21298;DHT22;10808;48.010;11.326;2022-07-21T01:00:28;22.70;99.90
21298;DHT22;10808;48.010;11.326;2022-07-21T01:02:55;22.80;99.90
21298;DHT22;10808;48.010;11.326;2022-07-21T01:05:22;22.80;99.90
21298;DHT22;10808;48.010;11.326;2022-07-21T01:07:50;22.80;99.90
21298;DHT22;10808;48.010;11.326;2022-07-21T01:10:18;22.70;99.90
21298;DHT22;10808;48.010;11.326;2022-07-21T01:12:44;22.70;99.90
21298;DHT22;10808;48.010;11.326;2022-07-21T01:15:13;22.80;99.90
21298;DHT22;10808;48.010;11.326;2022-07-21T01:17:40;22.70;99.90
21298;DHT22;10808;48.010;11.326;2022-07-21T01:20:09;22.70;99.90
21298;DHT22;10808;48.010;11.326;2022-07-21T01:22:37;22.80;99.90
21298;DHT22;10808;48.010;11.326;2022-07-21T01:25:04;22.70;99.90
21298;DHT22;10808;48.010;11.326;2022-07-21T01:27:30;22.70;99.90
21298;DHT22;10808;48.010;11.326;2022-07-21T01:29:57;22.70;99.90
21298;DHT22;10808;48.010;11.326;2022-07-21T01:32:24;22.70;99.90
21298;DHT22;10808;48.010;11.326;2022-07-21T01:34:50;22.70;99.90
21298;DHT22;10808;48.010;11.326;2022-07-21T01:37:22;22.60;99.90
21298;DHT22;10808;48.010;11.326;2022-07-21T01:39:50;22.60;99.90
21298;DHT22;10808;48.010;11.326;2022-07-21T01:42:35;22.60;99.90
21298;DHT22;10808;48.010;11.326;2022-07-21T01:45:01;22.60;99.90
21298;DHT22;10808;48.010;11.326;2022-07-21T01:47:28;22.60;99.90
21298;DHT22;10808;48.010;11.326;2022-07-21T01:49:54;22.50;99.90
21298;DHT22;10808;48.010;11.326;2022-07-21T01:52:20;22.50;99.90
21298;DHT22;10808;48.010;11.326;2022-07-21T01:54:46;22.50;99.90
21298;DHT22;10808;48.010;11.326;2022-07-21T01:57:12;22.50;99.90
21298;DHT22;10808;48.010;11.326;2022-07-21T01:59:38;22.50;99.90
21298;DHT22;10808;48.010;11.326;2022-07-21T02:02:04;22.50;99.90
21298;DHT22;10808;48.010;11.326;2022-07-21T02:04:30;22.40;99.90
21298;DHT22;10808;48.010;11.326;2022-07-21T02:06:56;22.50;99.90
21298;DHT22;10808;48.010;11.326;2022-07-21T02:09:22;22.40;99.90
21298;DHT22;10808;48.010;11.326;2022-07-21T02:11:48;22.40;99.90
21298;DHT22;10808;48.010;11.326;2022-07-21T02:14:14;22.40;99.90
21298;DHT22;10808;48.010;11.326;2022-07-21T02:16:40;22.40;99.90
21298;DHT22;10808;48.010;11.326;2022-07-21T02:19:08;22.40;99.90
21298;DHT22;10808;48.010;11.326;2022-07-21T02:21:34;22.40;99.90
21298;DHT22;10808;48.010;11.326;2022-07-21T02:24:00;22.40;99.90
21298;DHT22;10808;48.010;11.326;2022-07-21T02:26:26;22.30;99.90
21298;DHT22;10808;48.010;11.326;2022-07-21T02:28:52;22.30;99.90
21298;DHT22;10808;48.010;11.326;2022-07-21T02:31:19;22.20;99.90
21298;DHT22;10808;48.010;11.326;2022-07-21T02:33:45;22.20;99.90
21298;DHT22;10808;48.010;11.326;2022-07-21T02:36:11;22.20;99.90
21298;DHT22;10808;48.010;11.326;2022-07-21T02:38:37;22.10;99.90
21298;DHT22;10808;48.010;11.326;2022-07-21T02:41:03;22.10;99.90
21298;DHT22;10808;48.010;11.326;2022-07-21T02:43:30;22.10;99.90
21298;DHT22;10808;48.010;11.326;2022-07-21T02:45:56;22.00;99.90
21298;DHT22;10808;48.010;11.326;2022-07-21T02:48:22;21.90;99.90
21298;DHT22;10808;48.010;11.326;2022-07-21T02:50:48;21.90;99.90
21298;DHT22;10808;48.010;11.326;2022-07-21T02:53:17;21.80;99.90
21298;DHT22;10808;48.010;11.326;2022-07-21T02:55:46;21.80;99.90
21298;DHT22;10808;48.010;11.326;2022-07-21T02:58:24;21.80;99.90
21298;DHT22;10808;48.010;11.326;2022-07-21T03:01:05;21.70;99.90
21298;DHT22;10808;48.010;11.326;2022-07-21T03:03:34;21.60;99.90
21298;DHT22;10808;48.010;11.326;2022-07-21T03:06:01;21.60;99.90
21298;DHT22;10808;48.010;11.326;2022-07-21T03:08:28;21.60;99.90
21298;DHT22;10808;48.010;11.326;2022-07-21T03:10:54;21.60;99.90
21298;DHT22;10808;48.010;11.326;2022-07-21T03:13:21;21.60;99.90
21298;DHT22;10808;48.010;11.326;2022-07-21T03:15:47;21.50;99.90
21298;DHT22;10808;48.010;11.326;2022-07-21T03:18:14;21.60;99.90
21298;DHT22;10808;48.010;11.326;2022-07-21T03:20:41;21.60;99.90
21298;DHT22;10808;48.010;11.326;2022-07-21T03:23:07;21.70;99.90
21298;DHT22;10808;48.010;11.326;2022-07-21T03:25:34;21.60;99.90
21298;DHT22;10808;48.010;11.326;2022-07-21T03:28:19;21.50;99.90
21298;DHT22;10808;48.010;11.326;2022-07-21T03:30:56;21.60;99.90
21298;DHT22;10808;48.010;11.326;2022-07-21T03:33:22;21.50;99.90
21298;DHT22;10808;48.010;11.326;2022-07-21T03:35:49;21.50;99.90
21298;DHT22;10808;48.010;11.326;2022-07-21T03:38:15;21.50;99.90
21298;DHT22;10808;48.010;11.326;2022-07-21T03:40:41;21.50;99.90
21298;DHT22;10808;48.010;11.326;2022-07-21T03:43:07;21.40;99.90
21298;DHT22;10808;48.010;11.326;2022-07-21T03:45:35;21.40;99.90
21298;DHT22;10808;48.010;11.326;2022-07-21T03:48:03;21.40;99.90
21298;DHT22;10808;48.010;11.326;2022-07-21T03:50:30;21.40;99.90
21298;DHT22;10808;48.010;11.326;2022-07-21T03:52:57;21.30;99.90
21298;DHT22;10808;48.010;11.326;2022-07-21T03:55:24;21.30;99.90
21298;DHT22;10808;48.010;11.326;2022-07-21T03:57:53;21.40;99.90
21298;DHT22;10808;48.010;11.326;2022-07-21T04:00:31;21.30;99.90
21298;DHT22;10808;48.010;11.326;2022-07-21T04:02:57;21.40;99.90
21298;DHT22;10808;48.010;11.326;2022-07-21T04:05:24;21.30;99.90
21298;DHT22;10808;48.010;11.326;2022-07-21T04:07:51;21.40;99.90
21298;DHT22;10808;48.010;11.326;2022-07-21T04:10:20;21.40;99.90
21298;DHT22;10808;48.010;11.326;2022-07-21T04:12:47;21.40;99.90
21298;DHT22;10808;48.010;11.326;2022-07-21T04:15:13;21.40;99.90
21298;DHT22;10808;48.010;11.326;2022-07-21T04:17:40;21.50;99.90
21298;DHT22;10808;48.010;11.326;2022-07-21T04:20:07;21.40;99.90
21298;DHT22;10808;48.010;11.326;2022-07-21T04:22:34;21.40;99.90
21298;DHT22;10808;48.010;11.326;2022-07-21T04:25:01;21.40;99.90
21298;DHT22;10808;48.010;11.326;2022-07-21T04:27:27;21.40;99.90
21298;DHT22;10808;48.010;11.326;2022-07-21T04:29:53;21.30;99.90
21298;DHT22;10808;48.010;11.326;2022-07-21T04:32:20;21.30;99.90
21298;DHT22;10808;48.010;11.326;2022-07-21T04:34:46;21.40;99.90
21298;DHT22;10808;48.010;11.326;2022-07-21T04:37:12;21.30;99.90
21298;DHT22;10808;48.010;11.326;2022-07-21T04:39:38;21.30;99.90
21298;DHT22;10808;48.010;11.326;2022-07-21T04:42:04;21.30;99.90
21298;DHT22;10808;48.010;11.326;2022-07-21T04:44:30;21.30;99.90
21298;DHT22;10808;48.010;11.326;2022-07-21T04:46:57;21.30;99.90
21298;DHT22;10808;48.010;11.326;2022-07-21T04:49:23;21.40;99.90
21298;DHT22;10808;48.010;11.326;2022-07-21T04:51:49;21.30;99.90
21298;DHT22;10808;48.010;11.326;2022-07-21T04:54:15;21.30;99.90
21298;DHT22;10808;48.010;11.326;2022-07-21T04:56:42;21.30;99.90
21298;DHT22;10808;48.010;11.326;2022-07-21T04:59:08;21.30;99.90
21298;DHT22;10808;48.010;11.326;2022-07-21T05:01:35;21.40;99.90
21298;DHT22;10808;48.010;11.326;2022-07-21T05:04:01;21.40;99.90
21298;DHT22;10808;48.010;11.326;2022-07-21T05:06:27;21.40;99.90
21298;DHT22;10808;48.010;11.326;2022-07-21T05:08:53;21.40;99.90
21298;DHT22;10808;48.010;11.326;2022-07-21T05:11:19;21.50;99.90
21298;DHT22;10808;48.010;11.326;2022-07-21T05:13:45;21.50;99.90
21298;DHT22;10808;48.010;11.326;2022-07-21T05:16:12;21.60;99.90
21298;DHT22;10808;48.010;11.326;2022-07-21T05:18:38;21.60;99.90
21298;DHT22;10808;48.010;11.326;2022-07-21T05:21:04;21.60;99.90
21298;DHT22;10808;48.010;11.326;2022-07-21T05:23:30;21.60;99.90
21298;DHT22;10808;48.010;11.326;2022-07-21T05:25:56;21.60;99.90
21298;DHT22;10808;48.010;11.326;2022-07-21T05:28:22;21.60;99.90
21298;DHT22;10808;48.010;11.326;2022-07-21T05:30:50;21.60;99.90
21298;DHT22;10808;48.010;11.326;2022-07-21T05:33:16;21.60;99.90
21298;DHT22;10808;48.010;11.326;2022-07-21T05:35:42;21.60;99.90
21298;DHT22;10808;48.010;11.326;2022-07-21T05:38:08;21.70;99.90
21298;DHT22;10808;48.010;11.326;2022-07-21T05:40:34;21.60;99.90
21298;DHT22;10808;48.010;11.326;2022-07-21T05:43:00;21.70;99.90
21298;DHT22;10808;48.010;11.326;2022-07-21T05:45:26;21.80;99.90
21298;DHT22;10808;48.010;11.326;2022-07-21T05:47:52;21.80;99.90
21298;DHT22;10808;48.010;11.326;2022-07-21T05:50:18;21.80;99.90
21298;DHT22;10808;48.010;11.326;2022-07-21T05:52:44;21.90;99.90
21298;DHT22;10808;48.010;11.326;2022-07-21T05:55:10;21.80;99.90
21298;DHT22;10808;48.010;11.326;2022-07-21T05:57:37;21.90;99.90
21298;DHT22;10808;48.010;11.326;2022-07-21T06:00:04;22.00;99.90
21298;DHT22;10808;48.010;11.326;2022-07-21T06:02:30;22.00;99.90
21298;DHT22;10808;48.010;11.326;2022-07-21T06:04:57;22.10;99.90
21298;DHT22;10808;48.010;11.326;2022-07-21T06:07:23;22.20;99.90
21298;DHT22;10808;48.010;11.326;2022-07-21T06:09:49;22.30;99.90
21298;DHT22;10808;48.010;11.326;2022-07-21T06:12:15;22.30;99.90
21298;DHT22;10808;48.010;11.326;2022-07-21T06:14:42;22.30;99.90
21298;DHT22;10808;48.010;11.326;2022-07-21T06:17:08;22.40;99.90
21298;DHT22;10808;48.010;11.326;2022-07-21T06:19:34;22.40;99.90
21298;DHT22;10808;48.010;11.326;2022-07-21T06:22:00;22.50;99.90
21298;DHT22;10808;48.010;11.326;2022-07-21T06:24:28;22.50;99.90
21298;DHT22;10808;48.010;11.326;2022-07-21T06:26:54;22.50;99.90
21298;DHT22;10808;48.010;11.326;2022-07-21T06:29:24;22.60;99.90
21298;DHT22;10808;48.010;11.326;2022-07-21T06:31:50;22.60;99.90
21298;DHT22;10808;48.010;11.326;2022-07-21T06:34:17;22.60;99.90
21298;DHT22;10808;48.010;11.326;2022-07-21T06:36:43;22.60;99.90
21298;DHT22;10808;48.010;11.326;2022-07-21T06:39:09;22.60;99.90
21298;DHT22;10808;48.010;11.326;2022-07-21T06:41:40;22.50;99.90
21298;DHT22;10808;48.010;11.326;2022-07-21T06:44:07;22.50;99.90
21298;DHT22;10808;48.010;11.326;2022-07-21T06:46:33;22.50;99.90
21298;DHT22;10808;48.010;11.326;2022-07-21T06:49:01;22.50;99.90
21298;DHT22;10808;48.010;11.326;2022-07-21T06:51:27;22.50;99.90
21298;DHT22;10808;48.010;11.326;2022-07-21T06:53:53;22.50;99.90
21298;DHT22;10808;48.010;11.326;2022-07-21T06:56:19;22.50;99.90
21298;DHT22;10808;48.010;11.326;2022-07-21T06:58:46;22.60;99.90
21298;DHT22;10808;48.010;11.326;2022-07-21T07:01:12;22.50;99.90
21298;DHT22;10808;48.010;11.326;2022-07-21T07:03:40;22.50;99.90
21298;DHT22;10808;48.010;11.326;2022-07-21T07:06:07;22.50;99.90
21298;DHT22;10808;48.010;11.326;2022-07-21T07:08:33;22.50;99.90
21298;DHT22;10808;48.010;11.326;2022-07-21T07:10:59;22.50;99.90
21298;DHT22;10808;48.010;11.326;2022-07-21T07:13:25;22.40;99.90
21298;DHT22;10808;48.010;11.326;2022-07-21T07:15:51;22.30;99.90
21298;DHT22;10808;48.010;11.326;2022-07-21T07:18:17;22.20;99.90
21298;DHT22;10808;48.010;11.326;2022-07-21T07:20:46;22.10;99.90
21298;DHT22;10808;48.010;11.326;2022-07-21T07:23:12;22.10;99.90
21298;DHT22;10808;48.010;11.326;2022-07-21T07:25:38;22.10;99.90
21298;DHT22;10808;48.010;11.326;2022-07-21T07:28:04;22.10;99.90
21298;DHT22;10808;48.010;11.326;2022-07-21T07:30:31;22.10;99.90
21298;DHT22;10808;48.010;11.326;2022-07-21T07:32:57;22.20;99.90
21298;DHT22;10808;48.010;11.326;2022-07-21T07:35:23;22.20;99.90
21298;DHT22;10808;48.010;11.326;2022-07-21T07:37:49;22.20;99.90
21298;DHT22;10808;48.010;11.326;2022-07-21T07:40:18;22.30;99.90
21298;DHT22;10808;48.010;11.326;2022-07-21T07:42:44;22.30;99.90
21298;DHT22;10808;48.010;11.326;2022-07-21T07:45:11;22.30;99.90
21298;DHT22;10808;48.010;11.326;2022-07-21T07:47:37;22.30;99.90
21298;DHT22;10808;48.010;11.326;2022-07-21T07:50:05;22.40;99.90
21298;DHT22;10808;48.010;11.326;2022-07-21T07:52:32;22.30;99.90
21298;DHT22;10808;48.010;11.326;2022-07-21T07:54:58;22.30;99.90
21298;DHT22;10808;48.010;11.326;2022-07-21T07:57:24;22.40;99.90
21298;DHT22;10808;48.010;11.326;2022-07-21T07:59:50;22.30;99.90
21298;DHT22;10808;48.010;11.326;2022-07-21T08:02:16;22.30;99.90
21298;DHT22;10808;48.010;11.326;2022-07-21T08:04:42;22.40;99.90
21298;DHT22;10808;48.010;11.326;2022-07-21T08:07:08;22.30;99.90
21298;DHT22;10808;48.010;11.326;2022-07-21T08:09:34;22.40;99.90
21298;DHT22;10808;48.010;11.326;2022-07-21T08:12:00;22.40;99.90
21298;DHT22;10808;48.010;11.326;2022-07-21T08:14:26;22.40;99.90
21298;DHT22;10808;48.010;11.326;2022-07-21T08:16:52;22.40;99.90
21298;DHT22;10808;48.010;11.326;2022-07-21T08:19:18;22.40;99.90
21298;DHT22;10808;48.010;11.326;2022-07-21T08:21:45;22.40;99.90
21298;DHT22;10808;48.010;11.326;2022-07-21T08:24:11;22.40;99.90
21298;DHT22;10808;48.010;11.326;2022-07-21T08:26:37;22.30;99.90
21298;DHT22;10808;48.010;11.326;2022-07-21T08:29:03;22.30;99.90
21298;DHT22;10808;48.010;11.326;2022-07-21T08:31:30;22.30;99.90
21298;DHT22;10808;48.010;11.326;2022-07-21T08:33:56;22.30;99.90
21298;DHT22;10808;48.010;11.326;2022-07-21T08:36:22;22.30;99.90
21298;DHT22;10808;48.010;11.326;2022-07-21T08:38:48;22.30;99.90
21298;DHT22;10808;48.010;11.326;2022-07-21T08:41:14;22.20;99.90
21298;DHT22;10808;48.010;11.326;2022-07-21T08:43:40;22.10;99.90
21298;DHT22;10808;48.010;11.326;2022-07-21T08:46:06;22.10;99.90
21298;DHT22;10808;48.010;11.326;2022-07-21T08:48:33;22.00;99.90
21298;DHT22;10808;48.010;11.326;2022-07-21T08:50:59;21.90;99.90
21298;DHT22;10808;48.010;11.326;2022-07-21T08:53:26;21.80;99.90
21298;DHT22;10808;48.010;11.326;2022-07-21T08:55:52;21.80;99.90
21298;DHT22;10808;48.010;11.326;2022-07-21T08:58:18;21.70;99.90
21298;DHT22;10808;48.010;11.326;2022-07-21T09:00:47;21.60;99.90
21298;DHT22;10808;48.010;11.326;2022-07-21T09:03:22;21.60;99.90
21298;DHT22;10808;48.010;11.326;2022-07-21T09:06:08;21.60;99.90
21298;DHT22;10808;48.010;11.326;2022-07-21T09:08:38;21.60;99.90
21298;DHT22;10808;48.010;11.326;2022-07-21T09:13:41;21.50;99.90
21298;DHT22;10808;48.010;11.326;2022-07-21T09:16:08;21.50;99.90
21298;DHT22;10808;48.010;11.326;2022-07-21T09:18:48;21.50;99.90
21298;DHT22;10808;48.010;11.326;2022-07-21T09:21:16;21.40;99.90
21298;DHT22;10808;48.010;11.326;2022-07-21T09:23:42;21.50;99.90
21298;DHT22;10808;48.010;11.326;2022-07-21T09:26:11;21.50;99.90
21298;DHT22;10808;48.010;11.326;2022-07-21T09:28:40;21.50;99.90
21298;DHT22;10808;48.010;11.326;2022-07-21T09:31:09;21.50;99.90
21298;DHT22;10808;48.010;11.326;2022-07-21T09:33:43;21.50;99.90
21298;DHT22;10808;48.010;11.326;2022-07-21T09:36:18;21.50;99.90
21298;DHT22;10808;48.010;11.326;2022-07-21T09:38:53;21.60;99.90
21298;DHT22;10808;48.010;11.326;2022-07-21T09:41:25;21.60;99.90
21298;DHT22;10808;48.010;11.326;2022-07-21T09:43:54;21.60;99.90
21298;DHT22;10808;48.010;11.326;2022-07-21T09:46:23;21.60;99.90
21298;DHT22;10808;48.010;11.326;2022-07-21T09:48:52;21.60;99.90
21298;DHT22;10808;48.010;11.326;2022-07-21T09:51:26;21.60;99.90
21298;DHT22;10808;48.010;11.326;2022-07-21T09:56:26;21.60;99.90
21298;DHT22;10808;48.010;11.326;2022-07-21T09:58:53;21.60;99.90
21298;DHT22;10808;48.010;11.326;2022-07-21T10:01:20;21.60;99.90
21298;DHT22;10808;48.010;11.326;2022-07-21T10:03:48;21.70;99.90
21298;DHT22;10808;48.010;11.326;2022-07-21T10:06:16;21.60;99.90
21298;DHT22;10808;48.010;11.326;2022-07-21T10:08:44;21.70;99.90
21298;DHT22;10808;48.010;11.326;2022-07-21T10:11:10;21.70;99.90
21298;DHT22;10808;48.010;11.326;2022-07-21T10:13:39;21.70;99.90
21298;DHT22;10808;48.010;11.326;2022-07-21T10:16:10;21.70;99.90
21298;DHT22;10808;48.010;11.326;2022-07-21T10:19:06;21.70;99.90
21298;DHT22;10808;48.010;11.326;2022-07-21T10:24:22;21.70;99.90
21298;DHT22;10808;48.010;11.326;2022-07-21T10:27:12;21.70;99.90
21298;DHT22;10808;48.010;11.326;2022-07-21T10:32:22;21.90;99.90
21298;DHT22;10808;48.010;11.326;2022-07-21T10:34:48;21.90;99.90
21298;DHT22;10808;48.010;11.326;2022-07-21T10:40:06;22.10;99.90
21298;DHT22;10808;48.010;11.326;2022-07-21T10:45:38;22.20;99.90
21298;DHT22;10808;48.010;11.326;2022-07-21T10:48:08;22.30;99.90
21298;DHT22;10808;48.010;11.326;2022-07-21T10:50:37;22.40;99.90
21298;DHT22;10808;48.010;11.326;2022-07-21T10:53:14;22.50;99.90
21298;DHT22;10808;48.010;11.326;2022-07-21T10:55:52;22.60;99.90
21298;DHT22;10808;48.010;11.326;2022-07-21T10:58:31;22.70;99.90
21298;DHT22;10808;48.010;11.326;2022-07-21T11:03:33;22.70;99.90
21298;DHT22;10808;48.010;11.326;2022-07-21T11:08:35;22.90;99.90
21298;DHT22;10808;48.010;11.326;2022-07-21T11:22:05;23.20;99.90
21298;DHT22;10808;48.010;11.326;2022-07-21T11:24:33;23.20;99.90
21298;DHT22;10808;48.010;11.326;2022-07-21T11:27:04;23.30;99.90
21298;DHT22;10808;48.010;11.326;2022-07-21T11:29:36;23.30;99.90
21298;DHT22;10808;48.010;11.326;2022-07-21T11:32:03;23.30;99.90
21298;DHT22;10808;48.010;11.326;2022-07-21T11:37:27;23.40;99.90
21298;DHT22;10808;48.010;11.326;2022-07-21T11:39:53;23.50;99.90
21298;DHT22;10808;48.010;11.326;2022-07-21T11:42:19;23.50;99.90
21298;DHT22;10808;48.010;11.326;2022-07-21T11:44:46;23.50;99.90
21298;DHT22;10808;48.010;11.326;2022-07-21T11:47:14;23.60;99.90
21298;DHT22;10808;48.010;11.326;2022-07-21T11:49:42;23.70;99.90
21298;DHT22;10808;48.010;11.326;2022-07-21T11:52:14;23.80;99.90
21298;DHT22;10808;48.010;11.326;2022-07-21T11:57:11;23.90;99.90
21298;DHT22;10808;48.010;11.326;2022-07-21T11:59:39;24.00;99.90
21298;DHT22;10808;48.010;11.326;2022-07-21T12:04:46;24.10;99.90
21298;DHT22;10808;48.010;11.326;2022-07-21T12:07:35;24.20;99.90
21298;DHT22;10808;48.010;11.326;2022-07-21T12:10:12;24.30;99.90
21298;DHT22;10808;48.010;11.326;2022-07-21T12:12:40;24.40;99.90
21298;DHT22;10808;48.010;11.326;2022-07-21T12:15:24;24.50;99.90
21298;DHT22;10808;48.010;11.326;2022-07-21T12:18:01;24.50;99.90
21298;DHT22;10808;48.010;11.326;2022-07-21T12:20:35;24.60;99.90
21298;DHT22;10808;48.010;11.326;2022-07-21T12:23:07;24.70;99.90
21298;DHT22;10808;48.010;11.326;2022-07-21T12:25:42;24.70;99.90
21298;DHT22;10808;48.010;11.326;2022-07-21T12:28:08;24.70;99.90
21298;DHT22;10808;48.010;11.326;2022-07-21T12:30:43;24.60;99.90
21298;DHT22;10808;48.010;11.326;2022-07-21T12:33:20;24.60;99.90
21298;DHT22;10808;48.010;11.326;2022-07-21T12:36:07;24.60;99.90
21298;DHT22;10808;48.010;11.326;2022-07-21T12:41:04;24.60;99.90
21298;DHT22;10808;48.010;11.326;2022-07-21T12:43:30;24.60;99.90
21298;DHT22;10808;48.010;11.326;2022-07-21T12:48:29;24.70;99.90
21298;DHT22;10808;48.010;11.326;2022-07-21T12:51:03;24.90;99.90
21298;DHT22;10808;48.010;11.326;2022-07-21T12:53:32;25.00;99.90
21298;DHT22;10808;48.010;11.326;2022-07-21T12:55:59;25.10;99.90
21298;DHT22;10808;48.010;11.326;2022-07-21T12:58:25;25.20;99.90
21298;DHT22;10808;48.010;11.326;2022-07-21T13:00:52;25.30;99.90
21298;DHT22;10808;48.010;11.326;2022-07-21T13:03:18;25.30;99.90
21298;DHT22;10808;48.010;11.326;2022-07-21T13:05:45;25.40;99.90
21298;DHT22;10808;48.010;11.326;2022-07-21T13:08:11;25.40;99.90
21298;DHT22;10808;48.010;11.326;2022-07-21T13:10:37;25.50;99.90
21298;DHT22;10808;48.010;11.326;2022-07-21T13:13:03;25.50;99.90
21298;DHT22;10808;48.010;11.326;2022-07-21T13:15:29;25.60;99.90
21298;DHT22;10808;48.010;11.326;2022-07-21T13:17:55;25.50;99.90
21298;DHT22;10808;48.010;11.326;2022-07-21T13:20:21;25.60;99.90
21298;DHT22;10808;48.010;11.326;2022-07-21T13:22:47;25.60;99.90
21298;DHT22;10808;48.010;11.326;2022-07-21T13:25:14;25.70;99.90
21298;DHT22;10808;48.010;11.326;2022-07-21T13:27:40;25.70;99.90
21298;DHT22;10808;48.010;11.326;2022-07-21T13:30:07;25.70;99.90
21298;DHT22;10808;48.010;11.326;2022-07-21T13:32:34;25.70;99.90
21298;DHT22;10808;48.010;11.326;2022-07-21T13:35:01;25.60;99.90
21298;DHT22;10808;48.010;11.326;2022-07-21T13:37:27;25.60;99.90
21298;DHT22;10808;48.010;11.326;2022-07-21T13:39:53;25.60;99.90
21298;DHT22;10808;48.010;11.326;2022-07-21T13:42:19;25.60;99.90
21298;DHT22;10808;48.010;11.326;2022-07-21T13:44:45;25.50;99.90
21298;DHT22;10808;48.010;11.326;2022-07-21T13:47:11;25.50;99.90
21298;DHT22;10808;48.010;11.326;2022-07-21T13:49:37;25.50;99.90
21298;DHT22;10808;48.010;11.326;2022-07-21T13:52:04;25.50;99.90
21298;DHT22;10808;48.010;11.326;2022-07-21T13:54:30;25.50;99.90
21298;DHT22;10808;48.010;11.326;2022-07-21T13:56:56;25.60;99.90
21298;DHT22;10808;48.010;11.326;2022-07-21T13:59:23;25.60;99.90
21298;DHT22;10808;48.010;11.326;2022-07-21T14:01:49;25.50;99.90
21298;DHT22;10808;48.010;11.326;2022-07-21T14:04:15;25.60;99.90
21298;DHT22;10808;48.010;11.326;2022-07-21T14:06:41;25.60;99.90
21298;DHT22;10808;48.010;11.326;2022-07-21T14:09:07;25.70;99.90
21298;DHT22;10808;48.010;11.326;2022-07-21T14:11:33;25.80;99.90
21298;DHT22;10808;48.010;11.326;2022-07-21T14:14:01;25.80;99.90
21298;DHT22;10808;48.010;11.326;2022-07-21T14:16:27;25.80;99.90
21298;DHT22;10808;48.010;11.326;2022-07-21T14:18:53;25.90;99.90
21298;DHT22;10808;48.010;11.326;2022-07-21T14:21:19;25.90;99.90
21298;DHT22;10808;48.010;11.326;2022-07-21T14:23:45;26.00;99.90
21298;DHT22;10808;48.010;11.326;2022-07-21T14:26:12;26.10;99.90
21298;DHT22;10808;48.010;11.326;2022-07-21T14:28:38;26.20;99.90
21298;DHT22;10808;48.010;11.326;2022-07-21T14:31:04;26.30;99.90
21298;DHT22;10808;48.010;11.326;2022-07-21T14:33:30;26.40;99.90
21298;DHT22;10808;48.010;11.326;2022-07-21T14:35:57;26.60;99.90
21298;DHT22;10808;48.010;11.326;2022-07-21T14:38:23;26.70;99.90
21298;DHT22;10808;48.010;11.326;2022-07-21T14:40:49;26.80;99.90
21298;DHT22;10808;48.010;11.326;2022-07-21T14:43:15;27.00;99.90
21298;DHT22;10808;48.010;11.326;2022-07-21T14:45:41;27.20;99.90
21298;DHT22;10808;48.010;11.326;2022-07-21T14:48:08;27.20;99.90
21298;DHT22;10808;48.010;11.326;2022-07-21T14:50:34;27.20;99.90
21298;DHT22;10808;48.010;11.326;2022-07-21T14:53:00;27.20;99.90
21298;DHT22;10808;48.010;11.326;2022-07-21T14:55:27;27.40;99.90
21298;DHT22;10808;48.010;11.326;2022-07-21T14:57:54;27.50;99.90
21298;DHT22;10808;48.010;11.326;2022-07-21T15:00:20;27.50;99.90
21298;DHT22;10808;48.010;11.326;2022-07-21T15:02:49;27.60;99.90
21298;DHT22;10808;48.010;11.326;2022-07-21T15:05:15;27.70;99.90
21298;DHT22;10808;48.010;11.326;2022-07-21T15:07:41;27.90;99.90
21298;DHT22;10808;48.010;11.326;2022-07-21T15:10:08;28.00;99.90
21298;DHT22;10808;48.010;11.326;2022-07-21T15:12:34;28.20;99.90
21298;DHT22;10808;48.010;11.326;2022-07-21T15:15:00;28.30;99.90
21298;DHT22;10808;48.010;11.326;2022-07-21T15:17:26;28.20;99.90
21298;DHT22;10808;48.010;11.326;2022-07-21T15:19:53;28.20;99.90
21298;DHT22;10808;48.010;11.326;2022-07-21T15:22:20;28.20;99.90
21298;DHT22;10808;48.010;11.326;2022-07-21T15:24:46;28.10;99.90
21298;DHT22;10808;48.010;11.326;2022-07-21T15:27:12;28.10;99.90
21298;DHT22;10808;48.010;11.326;2022-07-21T15:29:38;28.20;99.90
21298;DHT22;10808;48.010;11.326;2022-07-21T15:32:04;28.30;99.90
21298;DHT22;10808;48.010;11.326;2022-07-21T15:34:30;28.40;99.90
21298;DHT22;10808;48.010;11.326;2022-07-21T15:36:56;28.50;99.90
21298;DHT22;10808;48.010;11.326;2022-07-21T15:39:22;28.50;99.90
21298;DHT22;10808;48.010;11.326;2022-07-21T15:41:49;28.40;99.90
21298;DHT22;10808;48.010;11.326;2022-07-21T15:44:15;28.40;99.90
21298;DHT22;10808;48.010;11.326;2022-07-21T15:46:42;28.30;99.90
21298;DHT22;10808;48.010;11.326;2022-07-21T15:49:08;28.40;99.90
21298;DHT22;10808;48.010;11.326;2022-07-21T15:51:34;28.50;99.90
21298;DHT22;10808;48.010;11.326;2022-07-21T15:54:00;28.40;99.90
21298;DHT22;10808;48.010;11.326;2022-07-21T15:56:26;28.30;99.80
21298;DHT22;10808;48.010;11.326;2022-07-21T15:58:52;28.20;99.50
21298;DHT22;10808;48.010;11.326;2022-07-21T16:01:37;28.10;99.90
21298;DHT22;10808;48.010;11.326;2022-07-21T16:04:03;28.00;99.90